createdAt,value
2019-05-17T00:00:07.416Z,39.15
2019-05-17T00:02:13.010Z,37.73
2019-05-17T00:04:16.937Z,35.58
2019-05-17T00:06:20.927Z,38.10
2019-05-17T00:08:34.301Z,39.53
2019-05-17T00:10:31.854Z,36.88
2019-05-17T00:12:36.701Z,35.98
2019-05-17T00:14:41.259Z,37.70
2019-05-17T00:16:46.965Z,37.05
2019-05-17T00:18:50.812Z,37.93
2019-05-17T00:20:56.958Z,37.50
2019-05-17T00:23:02.166Z,38.73
2019-05-17T00:25:07.799Z,39.27
2019-05-17T00:27:13.190Z,37.42
2019-05-17T00:29:17.358Z,37.40
2019-05-17T00:31:21.409Z,38.28
2019-05-17T00:33:27.214Z,37.25
2019-05-17T00:35:31.268Z,38.48
2019-05-17T00:37:37.177Z,37.65
2019-05-17T00:39:42.353Z,38.02
2019-05-17T00:41:46.945Z,39.85
2019-05-17T00:43:51.137Z,38.02
2019-05-17T00:45:57.487Z,38.38
2019-05-17T00:48:01.248Z,39.67
2019-05-17T00:50:07.654Z,42.27
2019-05-17T00:52:16.536Z,37.85
2019-05-17T00:54:21.251Z,38.05
2019-05-17T00:56:26.606Z,37.33
2019-05-17T00:58:36.657Z,38.50
2019-05-17T01:01:22.093Z,38.40
2019-05-17T01:03:26.910Z,38.55
2019-05-17T01:05:31.132Z,39.30
2019-05-17T01:07:37.984Z,40.40
2019-05-17T01:09:41.940Z,37.67
2019-05-17T01:11:47.446Z,38.00
2019-05-17T01:13:51.483Z,37.63
2019-05-17T01:15:56.622Z,40.65
2019-05-17T01:18:00.601Z,39.83
2019-05-17T01:20:06.848Z,42.25
2019-05-17T01:22:11.076Z,42.45
2019-05-17T01:24:17.310Z,43.95
2019-05-17T01:26:21.044Z,44.18
2019-05-17T01:28:26.780Z,43.45
2019-05-17T01:30:30.583Z,41.80
2019-05-17T01:32:37.175Z,42.13
2019-05-17T01:34:40.032Z,41.10
2019-05-17T01:36:46.298Z,38.83
2019-05-17T01:38:49.589Z,34.88
2019-05-17T01:40:53.479Z,35.08
2019-05-17T01:42:58.170Z,34.98
2019-05-17T01:45:03.454Z,34.48
2019-05-17T01:47:07.572Z,34.20
2019-05-17T01:49:13.542Z,34.45
2019-05-17T01:51:17.572Z,34.23
2019-05-17T01:53:21.389Z,35.08
2019-05-17T01:55:26.570Z,34.18
2019-05-17T01:57:31.043Z,33.02
2019-05-17T01:59:37.132Z,34.55
2019-05-17T02:01:41.440Z,37.65
2019-05-17T02:03:46.970Z,35.63
2019-05-17T02:05:51.217Z,40.40
2019-05-17T02:07:56.950Z,37.08
2019-05-17T02:10:00.909Z,36.60
2019-05-17T02:12:06.688Z,35.60
2019-05-17T02:14:10.839Z,38.65
2019-05-17T02:16:16.513Z,34.78
2019-05-17T02:18:20.346Z,34.60
2019-05-17T02:20:24.248Z,35.45
2019-05-17T02:22:28.392Z,36.95
2019-05-17T02:24:32.445Z,34.63
2019-05-17T02:26:37.448Z,35.60
2019-05-17T02:28:41.746Z,35.20
2019-05-17T02:30:46.267Z,34.75
2019-05-17T02:32:53.833Z,35.65
2019-05-17T02:34:56.536Z,33.75
2019-05-17T02:37:03.010Z,33.02
2019-05-17T02:39:07.355Z,34.53
2019-05-17T02:41:14.220Z,33.15
2019-05-17T02:43:18.505Z,34.08
2019-05-17T02:45:23.424Z,33.88
2019-05-17T02:47:33.629Z,34.90
2019-05-17T02:49:38.009Z,33.10
2019-05-17T02:51:43.175Z,35.65
2019-05-17T02:53:47.355Z,33.92
2019-05-17T02:55:53.817Z,34.78
2019-05-17T02:57:56.900Z,40.50
2019-05-17T03:00:04.493Z,39.90
2019-05-17T03:02:08.747Z,39.25
2019-05-17T03:04:13.117Z,38.10
2019-05-17T03:06:17.233Z,38.63
2019-05-17T03:08:23.469Z,38.88
2019-05-17T03:10:29.044Z,37.48
2019-05-17T03:12:35.575Z,37.75
2019-05-17T03:14:39.449Z,41.70
2019-05-17T03:16:43.422Z,40.43
2019-05-17T03:18:47.943Z,39.67
2019-05-17T03:20:54.801Z,40.67
2019-05-17T03:22:58.721Z,41.23
2019-05-17T03:25:03.593Z,39.00
2019-05-17T03:27:07.864Z,38.70
2019-05-17T03:29:13.680Z,40.25
2019-05-17T03:31:18.746Z,39.00
2019-05-17T03:33:26.620Z,38.78
2019-05-17T03:35:29.251Z,41.10
2019-05-17T03:37:37.720Z,40.78
2019-05-17T03:39:42.660Z,41.42
2019-05-17T03:41:44.474Z,39.63
2019-05-17T03:43:48.517Z,38.13
2019-05-17T03:45:53.429Z,40.45
2019-05-17T03:47:57.497Z,41.68
2019-05-17T03:50:03.042Z,41.45
2019-05-17T03:52:07.121Z,39.53
2019-05-17T03:54:13.822Z,39.80
2019-05-17T03:56:16.549Z,37.17
2019-05-17T03:58:23.290Z,39.67
2019-05-17T04:00:26.212Z,39.65
2019-05-17T04:02:32.707Z,40.60
2019-05-17T04:04:35.850Z,42.20
2019-05-17T04:06:39.778Z,45.35
2019-05-17T04:08:43.819Z,42.95
2019-05-17T04:10:47.790Z,43.33
2019-05-17T04:12:53.348Z,44.20
2019-05-17T04:14:57.340Z,42.30
2019-05-17T04:17:03.084Z,44.10
2019-05-17T04:19:06.814Z,45.03
2019-05-17T04:21:12.589Z,47.88
2019-05-17T04:23:16.342Z,46.50
2019-05-17T04:25:23.230Z,47.98
2019-05-17T04:27:26.303Z,49.20
2019-05-17T04:29:33.059Z,48.17
2019-05-17T04:31:35.761Z,45.60
2019-05-17T04:33:42.621Z,50.67
2019-05-17T04:35:45.301Z,50.25
2019-05-17T04:37:52.407Z,47.35
2019-05-17T04:39:54.806Z,50.75
2019-05-17T04:41:58.765Z,49.45
2019-05-17T04:44:02.976Z,50.35
2019-05-17T04:46:07.080Z,51.92
2019-05-17T04:48:13.156Z,56.02
2019-05-17T04:50:16.723Z,53.50
2019-05-17T04:52:22.845Z,52.50
2019-05-17T04:54:26.286Z,53.63
2019-05-17T04:56:33.332Z,53.60
2019-05-17T04:58:37.475Z,55.40
2019-05-17T05:00:43.058Z,51.13
2019-05-17T05:02:46.972Z,54.50
2019-05-17T05:04:53.351Z,53.75
2019-05-17T05:06:56.886Z,53.38
2019-05-17T05:09:02.563Z,53.38
2019-05-17T05:11:06.435Z,56.65
2019-05-17T05:13:13.364Z,54.15
2019-05-17T05:15:22.510Z,56.80
2019-05-17T05:17:25.929Z,55.85
2019-05-17T05:19:32.722Z,55.80
2019-05-17T05:21:35.482Z,53.60
2019-05-17T05:23:39.476Z,52.88
2019-05-17T05:25:43.523Z,58.95
2019-05-17T05:27:47.608Z,57.13
2019-05-17T05:29:52.187Z,56.23
2019-05-17T05:31:56.201Z,58.58
2019-05-17T05:34:01.828Z,55.48
2019-05-17T05:36:05.908Z,52.67
2019-05-17T05:38:09.899Z,58.92
2019-05-17T05:40:14.199Z,54.67
2019-05-17T05:42:19.538Z,53.55
2019-05-17T05:44:23.368Z,54.75
2019-05-17T05:46:27.234Z,54.60
2019-05-17T05:48:32.647Z,55.08
2019-05-17T05:50:38.253Z,51.60
2019-05-17T05:52:42.607Z,54.20
2019-05-17T05:54:46.877Z,52.60
2019-05-17T05:56:52.480Z,52.38
2019-05-17T05:58:56.595Z,50.63
2019-05-17T06:01:02.381Z,52.05
2019-05-17T06:03:06.043Z,50.95
2019-05-17T06:05:12.829Z,51.05
2019-05-17T06:07:15.584Z,50.00
2019-05-17T06:09:24.945Z,53.73
2019-05-17T06:11:28.973Z,50.33
2019-05-17T06:13:32.979Z,49.70
2019-05-17T06:15:37.921Z,47.48
2019-05-17T06:17:42.897Z,48.63
2019-05-17T06:19:47.249Z,48.13
2019-05-17T06:21:52.033Z,46.63
2019-05-17T06:23:56.194Z,46.10
2019-05-17T06:26:03.351Z,44.55
2019-05-17T06:28:05.822Z,42.60
2019-05-17T06:30:12.305Z,43.95
2019-05-17T06:32:15.704Z,46.33
2019-05-17T06:34:22.165Z,48.50
2019-05-17T06:36:25.665Z,46.48
2019-05-17T06:38:29.571Z,47.78
2019-05-17T06:40:33.872Z,48.52
2019-05-17T06:42:41.339Z,47.83
2019-05-17T06:44:43.317Z,44.40
2019-05-17T06:46:47.243Z,49.35
2019-05-17T06:48:52.977Z,46.48
2019-05-17T06:50:56.893Z,44.77
2019-05-17T06:53:03.185Z,44.88
2019-05-17T06:55:06.948Z,45.78
2019-05-17T06:57:12.798Z,48.78
2019-05-17T06:59:16.861Z,45.92
2019-05-17T07:01:20.817Z,43.87
2019-05-17T07:03:24.933Z,44.73
2019-05-17T07:05:33.189Z,45.80
2019-05-17T07:07:37.251Z,45.65
2019-05-17T07:09:41.260Z,45.00
2019-05-17T07:11:45.163Z,42.62
2019-05-17T07:13:49.584Z,44.40
2019-05-17T07:15:54.501Z,44.55
2019-05-17T07:17:59.945Z,44.93
2019-05-17T07:20:04.265Z,44.40
2019-05-17T07:22:09.471Z,44.50
2019-05-17T07:24:13.598Z,47.95
2019-05-17T07:26:19.574Z,44.93
2019-05-17T07:28:23.190Z,46.42
2019-05-17T07:30:30.427Z,47.60
2019-05-17T07:32:33.635Z,46.15
2019-05-17T07:34:39.583Z,50.05
2019-05-17T07:36:43.199Z,50.58
2019-05-17T07:38:47.194Z,50.20
2019-05-17T07:40:51.307Z,49.77
2019-05-17T07:43:06.903Z,48.63
2019-05-17T07:45:00.859Z,49.13
2019-05-17T07:47:04.778Z,47.65
2019-05-17T07:49:10.860Z,46.88
2019-05-17T07:51:14.517Z,45.92
2019-05-17T07:53:20.129Z,45.20
2019-05-17T07:55:24.376Z,52.00
2019-05-17T07:57:29.932Z,48.48
2019-05-17T07:59:33.927Z,47.38
2019-05-17T08:01:37.974Z,39.53
2019-05-17T08:03:42.043Z,41.23
2019-05-17T08:05:46.009Z,41.83
2019-05-17T08:07:50.140Z,42.78
2019-05-17T08:09:54.204Z,40.80
2019-05-17T08:12:01.459Z,40.90
2019-05-17T08:14:05.351Z,39.25
2019-05-17T08:16:10.334Z,39.88
2019-05-17T08:18:15.006Z,36.77
2019-05-17T08:20:20.401Z,29.15
2019-05-17T08:22:24.565Z,29.82
2019-05-17T08:24:30.332Z,29.85
2019-05-17T08:26:34.116Z,28.32
2019-05-17T08:28:40.440Z,28.92
2019-05-17T08:30:46.125Z,23.85
2019-05-17T08:32:50.626Z,28.25
2019-05-17T08:34:54.865Z,26.30
2019-05-17T08:37:00.954Z,26.02
2019-05-17T08:39:05.686Z,24.47
2019-05-17T08:41:10.494Z,24.32
2019-05-17T08:43:14.678Z,24.25
2019-05-17T08:45:20.572Z,22.42
2019-05-17T08:47:25.705Z,24.92
2019-05-17T08:49:29.678Z,23.87
2019-05-17T08:51:33.779Z,24.20
2019-05-17T08:53:39.744Z,24.95
2019-05-17T08:55:43.332Z,22.22
2019-05-17T08:57:49.846Z,23.83
2019-05-17T08:59:52.887Z,23.60
2019-05-17T09:01:56.793Z,23.85
2019-05-17T09:04:00.695Z,24.35
2019-05-17T09:06:04.700Z,24.45
2019-05-17T09:08:10.562Z,26.90
2019-05-17T09:10:14.311Z,24.45
2019-05-17T09:12:20.493Z,24.30
2019-05-17T09:14:24.315Z,25.85
2019-05-17T09:16:30.739Z,26.20
2019-05-17T09:18:33.891Z,24.15
2019-05-17T09:20:40.231Z,26.45
2019-05-17T09:22:43.420Z,23.98
2019-05-17T09:24:49.580Z,23.92
2019-05-17T09:26:52.974Z,23.40
2019-05-17T09:28:56.876Z,20.43
2019-05-17T09:31:00.885Z,21.70
2019-05-17T09:33:04.887Z,23.50
2019-05-17T09:35:11.661Z,22.25
2019-05-17T09:37:18.775Z,22.27
2019-05-17T09:39:21.418Z,22.77
2019-05-17T09:41:25.331Z,22.20
2019-05-17T09:43:29.673Z,21.55
2019-05-17T09:45:33.954Z,22.10
2019-05-17T09:47:39.824Z,22.27
2019-05-17T09:49:43.281Z,21.70
2019-05-17T09:51:49.562Z,22.22
2019-05-17T09:53:53.263Z,24.00
2019-05-17T09:56:00.704Z,22.10
2019-05-17T09:58:04.835Z,24.70
2019-05-17T10:00:10.275Z,24.18
2019-05-17T10:02:20.361Z,26.02
2019-05-17T10:04:24.464Z,25.77
2019-05-17T10:06:28.364Z,22.90
2019-05-17T10:08:32.264Z,22.00
2019-05-17T10:10:36.124Z,23.18
2019-05-17T10:12:40.522Z,24.65
2019-05-17T10:14:44.576Z,25.10
2019-05-17T10:16:48.507Z,23.30
2019-05-17T10:18:52.515Z,24.77
2019-05-17T10:20:56.420Z,25.72
2019-05-17T10:23:00.322Z,27.85
2019-05-17T10:25:06.073Z,26.85
2019-05-17T10:27:11.008Z,29.20
2019-05-17T10:29:16.550Z,26.45
2019-05-17T10:31:20.658Z,25.25
2019-05-17T10:33:24.560Z,26.65
2019-05-17T10:35:29.513Z,24.10
2019-05-17T10:37:36.677Z,25.12
2019-05-17T10:39:41.745Z,24.12
2019-05-17T10:41:49.925Z,25.90
2019-05-17T10:43:52.970Z,27.15
2019-05-17T10:45:56.902Z,25.05
2019-05-17T10:48:01.011Z,26.70
2019-05-17T10:50:06.248Z,23.50
2019-05-17T10:52:10.151Z,25.10
2019-05-17T10:54:14.017Z,25.35
2019-05-17T10:56:19.883Z,27.45
2019-05-17T10:58:23.631Z,25.62
2019-05-17T11:00:30.251Z,25.37
2019-05-17T11:02:33.619Z,26.07
2019-05-17T11:04:40.034Z,24.43
2019-05-17T11:06:43.112Z,23.85
2019-05-17T11:08:47.026Z,21.33
2019-05-17T11:10:52.459Z,20.82
2019-05-17T11:12:56.486Z,22.15
2019-05-17T11:15:11.074Z,21.23
2019-05-17T11:17:06.027Z,20.82
2019-05-17T11:19:10.232Z,20.15
2019-05-17T11:21:14.148Z,21.23
2019-05-17T11:23:18.263Z,21.02
2019-05-17T11:25:22.264Z,20.70
2019-05-17T11:27:26.114Z,20.92
2019-05-17T11:29:30.075Z,21.85
2019-05-17T11:31:33.980Z,22.82
2019-05-17T11:33:37.987Z,22.42
2019-05-17T11:35:41.960Z,23.38
2019-05-17T11:37:48.449Z,24.43
2019-05-17T11:39:52.467Z,23.15
2019-05-17T11:41:56.295Z,22.75
2019-05-17T11:44:00.480Z,23.47
2019-05-17T11:46:04.680Z,24.72
2019-05-17T11:48:11.103Z,23.15
2019-05-17T11:50:16.419Z,24.52
2019-05-17T11:52:20.653Z,23.90
2019-05-17T11:54:24.534Z,25.62
2019-05-17T11:56:31.435Z,23.95
2019-05-17T11:58:35.537Z,25.15
2019-05-17T12:00:39.507Z,24.98
2019-05-17T12:02:43.526Z,24.35
2019-05-17T12:04:47.417Z,25.30
2019-05-17T12:06:52.451Z,25.48
2019-05-17T12:08:58.205Z,24.92
2019-05-17T12:11:02.337Z,23.77
2019-05-17T12:13:06.463Z,21.07
2019-05-17T12:15:10.530Z,22.93
2019-05-17T12:17:15.755Z,22.77
2019-05-17T12:19:19.609Z,23.75
2019-05-17T12:21:23.681Z,25.65
2019-05-17T12:23:27.700Z,23.15
2019-05-17T12:25:31.610Z,23.10
2019-05-17T12:27:37.459Z,23.22
2019-05-17T12:29:41.477Z,23.20
2019-05-17T12:31:45.572Z,23.70
2019-05-17T12:33:49.601Z,23.18
2019-05-17T12:35:53.575Z,22.82
2019-05-17T12:37:57.583Z,23.77
2019-05-17T12:40:01.500Z,25.92
2019-05-17T12:42:05.425Z,23.22
2019-05-17T12:44:09.413Z,22.40
2019-05-17T12:46:13.614Z,21.85
2019-05-17T12:48:17.727Z,22.37
2019-05-17T12:50:22.119Z,20.35
2019-05-17T12:52:26.006Z,21.90
2019-05-17T12:54:30.055Z,22.10
2019-05-17T12:56:34.040Z,21.33
2019-05-17T12:58:37.968Z,20.20
2019-05-17T13:00:41.979Z,21.65
2019-05-17T13:02:45.883Z,20.80
2019-05-17T13:04:49.821Z,20.70
2019-05-17T13:06:53.768Z,18.05
2019-05-17T13:08:57.709Z,20.50
2019-05-17T13:11:01.638Z,19.95
2019-05-17T13:13:05.486Z,20.62
2019-05-17T13:15:09.912Z,18.87
2019-05-17T13:17:13.805Z,17.90
2019-05-17T13:19:17.657Z,18.27
2019-05-17T13:21:21.641Z,17.92
2019-05-17T13:23:25.475Z,18.98
2019-05-17T13:25:29.443Z,18.73
2019-05-17T13:27:33.360Z,20.50
2019-05-17T13:29:37.234Z,20.88
2019-05-17T13:31:41.179Z,19.23
2019-05-17T13:33:45.046Z,19.57
2019-05-17T13:35:49.003Z,19.75
2019-05-17T13:37:52.911Z,20.68
2019-05-17T13:39:56.749Z,20.50
2019-05-17T13:42:00.692Z,18.73
2019-05-17T13:44:04.554Z,20.70
2019-05-17T13:46:08.454Z,19.67
2019-05-17T13:48:12.266Z,21.05
2019-05-17T13:50:16.255Z,19.98
2019-05-17T13:52:20.127Z,21.12
2019-05-17T13:54:23.993Z,21.80
2019-05-17T13:56:27.884Z,20.70
2019-05-17T13:58:31.759Z,19.25
2019-05-17T14:00:35.648Z,22.22
2019-05-17T14:02:39.553Z,22.77
2019-05-17T14:04:43.423Z,22.35
2019-05-17T14:06:47.454Z,21.33
2019-05-17T14:08:52.145Z,22.98
2019-05-17T14:10:56.087Z,20.88
2019-05-17T14:12:59.989Z,20.62
2019-05-17T14:15:06.718Z,22.55
2019-05-17T14:17:10.694Z,22.15
2019-05-17T14:19:14.675Z,20.65
2019-05-17T14:21:18.513Z,21.23
2019-05-17T14:23:22.734Z,20.50
2019-05-17T14:25:26.738Z,21.80
2019-05-17T14:27:30.613Z,21.97
2019-05-17T14:29:34.613Z,21.35
2019-05-17T14:31:38.522Z,20.85
2019-05-17T14:33:43.961Z,22.73
2019-05-17T14:35:48.185Z,22.93
2019-05-17T14:37:52.279Z,22.82
2019-05-17T14:39:56.287Z,21.93
2019-05-17T14:42:06.004Z,21.23
2019-05-17T14:44:09.893Z,20.90
2019-05-17T14:46:13.842Z,20.20
2019-05-17T14:48:19.922Z,20.27
2019-05-17T14:50:23.743Z,19.70
2019-05-17T14:52:27.710Z,19.40
2019-05-17T14:54:31.703Z,19.07
2019-05-17T14:56:35.679Z,19.73
2019-05-17T14:58:39.528Z,21.05
2019-05-17T15:00:43.839Z,20.10
2019-05-17T15:02:47.877Z,22.87
2019-05-17T15:04:51.860Z,21.50
2019-05-17T15:06:55.866Z,22.32
2019-05-17T15:09:00.573Z,19.77
2019-05-17T15:11:10.516Z,18.48
2019-05-17T15:13:14.753Z,18.98
2019-05-17T15:15:25.644Z,21.17
2019-05-17T15:17:24.269Z,21.82
2019-05-17T15:19:28.174Z,20.70
2019-05-17T15:21:32.041Z,22.15
2019-05-17T15:23:37.478Z,19.70
2019-05-17T15:25:41.365Z,22.15
2019-05-17T15:27:45.247Z,22.93
2019-05-17T15:29:49.168Z,23.57
2019-05-17T15:31:53.082Z,22.55
2019-05-17T15:33:57.329Z,20.45
2019-05-17T15:36:04.056Z,20.90
2019-05-17T15:38:11.315Z,22.13
2019-05-17T15:40:16.746Z,21.30
2019-05-17T15:42:20.641Z,22.02
2019-05-17T15:44:26.937Z,22.20
2019-05-17T15:46:30.100Z,22.73
2019-05-17T15:48:33.999Z,24.65
2019-05-17T15:50:37.902Z,21.20
2019-05-17T15:52:43.522Z,21.75
2019-05-17T15:54:48.696Z,20.48
2019-05-17T15:56:55.170Z,20.25
2019-05-17T15:58:59.199Z,21.25
2019-05-17T16:01:03.126Z,20.90
2019-05-17T16:03:07.313Z,22.48
2019-05-17T16:05:11.631Z,22.27
2019-05-17T16:07:15.738Z,21.70
2019-05-17T16:09:19.740Z,20.00
2019-05-17T16:11:23.687Z,22.42
2019-05-17T16:13:27.680Z,22.17
2019-05-17T16:15:31.597Z,20.75
2019-05-17T16:17:36.453Z,21.45
2019-05-17T16:19:40.364Z,20.32
2019-05-17T16:21:44.264Z,20.85
2019-05-17T16:23:48.291Z,20.68
2019-05-17T16:25:52.183Z,20.32
2019-05-17T16:27:56.072Z,19.42
2019-05-17T16:30:01.444Z,19.55
2019-05-17T16:32:05.659Z,19.27
2019-05-17T16:34:11.252Z,19.87
2019-05-17T16:36:15.159Z,20.92
2019-05-17T16:38:19.084Z,21.60
2019-05-17T16:40:22.947Z,21.15
2019-05-17T16:42:26.965Z,21.35
2019-05-17T16:44:39.654Z,21.00
2019-05-17T16:46:43.626Z,21.23
2019-05-17T16:48:47.616Z,24.30
2019-05-17T16:50:51.470Z,23.12
2019-05-17T16:53:05.457Z,25.80
2019-05-17T16:55:01.002Z,22.22
2019-05-17T16:57:04.947Z,23.30
2019-05-17T16:59:08.847Z,32.98
2019-05-17T17:01:12.840Z,54.67
2019-05-17T17:03:16.685Z,25.30
2019-05-17T17:05:20.594Z,23.12
2019-05-17T17:07:24.503Z,25.82
2019-05-17T17:09:28.355Z,23.52
2019-05-17T17:11:32.286Z,22.98
2019-05-17T17:13:36.191Z,27.58
2019-05-17T17:15:40.054Z,26.40
2019-05-17T17:17:43.943Z,24.27
2019-05-17T17:19:47.747Z,27.40
2019-05-17T17:21:51.800Z,30.30
2019-05-17T17:23:55.698Z,25.05
2019-05-17T17:25:59.704Z,27.17
2019-05-17T17:28:05.991Z,32.73
2019-05-17T17:30:11.860Z,25.60
2019-05-17T17:32:21.428Z,21.60
2019-05-17T17:34:21.112Z,23.42
2019-05-17T17:36:25.167Z,40.12
2019-05-17T17:38:29.094Z,23.90
2019-05-17T17:40:34.107Z,34.67
2019-05-17T17:42:38.931Z,22.90
2019-05-17T17:44:42.820Z,23.62
2019-05-17T17:46:46.691Z,24.35
2019-05-17T17:48:50.606Z,28.95
2019-05-17T17:50:54.674Z,24.27
2019-05-17T17:52:58.555Z,26.33
2019-05-17T17:55:02.415Z,28.02
2019-05-17T17:57:06.409Z,26.48
2019-05-17T17:59:10.247Z,25.95
2019-05-17T18:01:14.146Z,26.12
2019-05-17T18:03:18.352Z,23.92
2019-05-17T18:05:24.908Z,25.97
2019-05-17T18:07:27.733Z,27.32
2019-05-17T18:09:31.648Z,26.33
2019-05-17T18:11:35.755Z,26.37
2019-05-17T18:13:39.803Z,28.87
2019-05-17T18:15:45.429Z,26.82
2019-05-17T18:17:49.680Z,27.02
2019-05-17T18:19:53.532Z,27.52
2019-05-17T18:21:57.401Z,28.87
2019-05-17T18:24:01.281Z,27.75
2019-05-17T18:26:05.443Z,28.38
2019-05-17T18:28:09.886Z,25.15
2019-05-17T18:30:14.199Z,25.77
2019-05-17T18:32:18.077Z,27.35
2019-05-17T18:34:21.935Z,28.12
2019-05-17T18:36:25.809Z,27.30
2019-05-17T18:38:31.401Z,26.52
2019-05-17T18:40:35.345Z,26.62
2019-05-17T18:42:39.242Z,27.50
2019-05-17T18:44:43.159Z,28.23
2019-05-17T18:46:47.045Z,26.93
2019-05-17T18:48:52.604Z,29.20
2019-05-17T18:50:56.513Z,26.10
2019-05-17T18:53:00.526Z,28.10
2019-05-17T18:55:06.274Z,27.27
2019-05-17T18:57:10.178Z,26.33
2019-05-17T18:59:14.056Z,26.35
2019-05-17T19:01:17.966Z,26.85
2019-05-17T19:03:21.886Z,29.95
2019-05-17T19:05:25.999Z,25.37
2019-05-17T19:07:30.250Z,25.00
2019-05-17T19:09:34.472Z,26.07
2019-05-17T19:11:38.838Z,27.25
2019-05-17T19:13:42.845Z,25.50
2019-05-17T19:15:46.840Z,25.10
2019-05-17T19:17:50.861Z,24.95
2019-05-17T19:19:55.177Z,27.85
2019-05-17T19:21:59.086Z,23.87
2019-05-17T19:24:03.032Z,26.33
2019-05-17T19:26:07.096Z,26.20
2019-05-17T19:28:11.006Z,28.00
2019-05-17T19:30:15.357Z,27.62
2019-05-17T19:32:19.326Z,24.65
2019-05-17T19:34:23.341Z,25.92
2019-05-17T19:36:27.447Z,25.57
2019-05-17T19:38:31.388Z,29.67
2019-05-17T19:40:35.252Z,30.52
2019-05-17T19:42:39.158Z,33.15
2019-05-17T19:44:56.605Z,30.32
2019-05-17T19:46:48.607Z,31.75
2019-05-17T19:48:52.499Z,33.90
2019-05-17T19:50:56.476Z,31.02
2019-05-17T19:53:00.327Z,30.57
2019-05-17T19:55:06.099Z,38.20
2019-05-17T19:57:10.181Z,40.67
2019-05-17T19:59:14.037Z,33.05
2019-05-17T20:01:18.093Z,34.63
2019-05-17T20:03:22.057Z,37.28
2019-05-17T20:05:26.046Z,33.78
2019-05-17T20:07:37.076Z,40.38
2019-05-17T20:09:35.616Z,37.58
2019-05-17T20:11:39.667Z,38.17
2019-05-17T20:13:43.778Z,37.93
2019-05-17T20:15:47.785Z,37.38
2019-05-17T20:17:51.794Z,40.10
2019-05-17T20:19:55.805Z,35.08
2019-05-17T20:21:59.722Z,33.33
2019-05-17T20:24:03.713Z,35.48
2019-05-17T20:26:07.730Z,35.70
2019-05-17T20:28:11.627Z,37.10
2019-05-17T20:30:16.299Z,37.15
2019-05-17T20:32:20.213Z,35.83
2019-05-17T20:34:25.599Z,34.38
2019-05-17T20:36:29.603Z,34.45
2019-05-17T20:38:33.518Z,33.92
2019-05-17T20:40:37.437Z,34.08
2019-05-17T20:42:41.423Z,38.92
2019-05-17T20:44:45.327Z,36.85
2019-05-17T20:46:49.339Z,38.38
2019-05-17T20:48:53.446Z,39.08
2019-05-17T20:50:57.454Z,35.75
2019-05-17T20:53:01.600Z,38.35
2019-05-17T20:55:06.809Z,35.90
2019-05-17T20:57:10.809Z,36.50
2019-05-17T20:59:14.764Z,33.48
2019-05-17T21:01:18.823Z,35.35
2019-05-17T21:03:22.833Z,36.85
2019-05-17T21:05:28.324Z,32.58
2019-05-17T21:07:32.383Z,34.70
2019-05-17T21:09:36.291Z,33.63
2019-05-17T21:11:40.230Z,33.92
2019-05-17T21:13:44.537Z,33.53
2019-05-17T21:15:48.615Z,34.88
2019-05-17T21:17:54.062Z,35.38
2019-05-17T21:19:57.962Z,37.58
2019-05-17T21:22:02.219Z,39.42
2019-05-17T21:24:06.283Z,38.33
2019-05-17T21:26:10.229Z,36.28
2019-05-17T21:28:14.051Z,37.17
2019-05-17T21:30:18.329Z,36.20
2019-05-17T21:32:22.304Z,35.38
2019-05-17T21:34:26.262Z,37.53
2019-05-17T21:36:30.214Z,33.98
2019-05-17T21:38:34.237Z,33.23
2019-05-17T21:40:38.283Z,32.30
2019-05-17T21:42:42.355Z,32.23
2019-05-17T21:44:46.256Z,32.80
2019-05-17T21:47:03.667Z,33.00
2019-05-17T21:48:56.027Z,32.25
2019-05-17T21:51:00.021Z,30.60
2019-05-17T21:53:03.935Z,31.90
2019-05-17T21:55:07.838Z,31.95
2019-05-17T21:57:11.703Z,31.77
2019-05-17T21:59:18.457Z,31.15
2019-05-17T22:01:25.416Z,32.48
2019-05-17T22:03:29.392Z,31.00
2019-05-17T22:05:33.506Z,32.53
2019-05-17T22:07:37.514Z,30.80
2019-05-17T22:09:41.824Z,30.68
2019-05-17T22:11:47.307Z,30.20
2019-05-17T22:13:51.282Z,32.08
2019-05-17T22:15:55.386Z,31.25
2019-05-17T22:17:59.392Z,28.50
2019-05-17T22:20:03.675Z,27.37
2019-05-17T22:22:07.714Z,27.13
2019-05-17T22:24:11.789Z,26.73
2019-05-17T22:26:15.784Z,29.02
2019-05-17T22:28:19.942Z,28.92
2019-05-17T22:30:23.890Z,28.07
2019-05-17T22:32:27.956Z,25.92
2019-05-17T22:34:31.907Z,27.00
2019-05-17T22:36:35.753Z,26.35
2019-05-17T22:38:39.673Z,28.10
2019-05-17T22:40:43.587Z,25.57
2019-05-17T22:42:47.526Z,24.15
2019-05-17T22:44:51.596Z,25.75
2019-05-17T22:46:55.459Z,24.82
2019-05-17T22:48:59.346Z,25.27
2019-05-17T22:51:03.319Z,23.18
2019-05-17T22:53:07.158Z,22.95
2019-05-17T22:55:11.229Z,22.67
2019-05-17T22:57:15.164Z,22.15
2019-05-17T22:59:19.174Z,22.27
2019-05-17T23:01:23.150Z,21.48
2019-05-17T23:03:27.192Z,23.30
2019-05-17T23:05:31.161Z,23.38
2019-05-17T23:07:35.168Z,23.25
2019-05-17T23:09:39.275Z,24.18
2019-05-17T23:11:43.105Z,22.37
2019-05-17T23:13:47.027Z,25.40
2019-05-17T23:16:04.659Z,25.85
2019-05-17T23:18:08.661Z,27.00
2019-05-17T23:20:12.894Z,26.93
2019-05-17T23:22:16.839Z,26.62
2019-05-17T23:24:20.681Z,26.60
2019-05-17T23:26:24.644Z,26.48
2019-05-17T23:28:28.656Z,28.95
2019-05-17T23:30:32.560Z,28.52
2019-05-17T23:32:36.407Z,27.45
2019-05-17T23:34:40.480Z,27.42
2019-05-17T23:36:44.380Z,28.20
2019-05-17T23:38:48.490Z,29.87
2019-05-17T23:40:52.606Z,26.37
2019-05-17T23:42:56.607Z,29.77
2019-05-17T23:45:00.615Z,29.65
2019-05-17T23:47:07.164Z,29.98
2019-05-17T23:49:10.148Z,29.12
2019-05-17T23:51:14.277Z,31.30
2019-05-17T23:53:18.399Z,30.60
2019-05-17T23:55:22.381Z,31.37
2019-05-17T23:57:26.258Z,32.15
2019-05-17T23:59:30.307Z,31.23
